sensor_id;sensor_type;location;lat;lon;timestamp;P1;durP1;ratioP1;P2;durP2;ratioP2
62933;SDS011;49038;47.600;19.242;2023-11-21T00:00:42;21.95;;;6.45;;
62933;SDS011;49038;47.600;19.242;2023-11-21T00:03:44;9.30;;;5.60;;
62933;SDS011;49038;47.600;19.242;2023-11-21T00:06:47;9.45;;;5.22;;
62933;SDS011;49038;47.600;19.242;2023-11-21T00:09:49;9.70;;;4.37;;
62933;SDS011;49038;47.600;19.242;2023-11-21T00:12:51;6.53;;;4.10;;
62933;SDS011;49038;47.600;19.242;2023-11-21T00:15:56;6.57;;;4.35;;
62933;SDS011;49038;47.600;19.242;2023-11-21T00:18:59;9.45;;;6.15;;
62933;SDS011;49038;47.600;19.242;2023-11-21T00:22:01;7.32;;;5.60;;
62933;SDS011;49038;47.600;19.242;2023-11-21T00:25:03;12.30;;;6.20;;
62933;SDS011;49038;47.600;19.242;2023-11-21T00:28:06;11.63;;;6.75;;
62933;SDS011;49038;47.600;19.242;2023-11-21T00:31:08;13.73;;;7.85;;
62933;SDS011;49038;47.600;19.242;2023-11-21T00:34:11;17.10;;;9.43;;
62933;SDS011;49038;47.600;19.242;2023-11-21T00:37:14;16.65;;;9.63;;
62933;SDS011;49038;47.600;19.242;2023-11-21T00:40:16;18.08;;;8.45;;
62933;SDS011;49038;47.600;19.242;2023-11-21T00:43:23;23.02;;;9.73;;
62933;SDS011;49038;47.600;19.242;2023-11-21T00:46:26;17.15;;;9.65;;
62933;SDS011;49038;47.600;19.242;2023-11-21T00:49:31;12.80;;;7.28;;
62933;SDS011;49038;47.600;19.242;2023-11-21T00:52:34;10.88;;;6.40;;
62933;SDS011;49038;47.600;19.242;2023-11-21T00:55:36;14.63;;;7.75;;
62933;SDS011;49038;47.600;19.242;2023-11-21T00:58:42;10.52;;;7.32;;
62933;SDS011;49038;47.600;19.242;2023-11-21T01:01:45;8.70;;;5.05;;
62933;SDS011;49038;47.600;19.242;2023-11-21T01:04:48;9.25;;;5.87;;
62933;SDS011;49038;47.600;19.242;2023-11-21T01:07:50;12.60;;;4.60;;
62933;SDS011;49038;47.600;19.242;2023-11-21T01:10:52;8.48;;;5.28;;
62933;SDS011;49038;47.600;19.242;2023-11-21T01:13:55;9.95;;;6.43;;
62933;SDS011;49038;47.600;19.242;2023-11-21T01:16:57;9.20;;;5.47;;
62933;SDS011;49038;47.600;19.242;2023-11-21T01:20:00;5.93;;;4.60;;
62933;SDS011;49038;47.600;19.242;2023-11-21T01:23:04;7.85;;;4.93;;
62933;SDS011;49038;47.600;19.242;2023-11-21T01:26:07;6.12;;;4.25;;
62933;SDS011;49038;47.600;19.242;2023-11-21T01:29:10;5.37;;;4.65;;
62933;SDS011;49038;47.600;19.242;2023-11-21T01:32:12;8.50;;;5.87;;
62933;SDS011;49038;47.600;19.242;2023-11-21T01:35:14;7.30;;;5.37;;
62933;SDS011;49038;47.600;19.242;2023-11-21T01:38:17;8.20;;;5.05;;
62933;SDS011;49038;47.600;19.242;2023-11-21T01:41:19;10.00;;;5.37;;
62933;SDS011;49038;47.600;19.242;2023-11-21T01:44:22;7.55;;;5.20;;
62933;SDS011;49038;47.600;19.242;2023-11-21T01:47:24;6.22;;;3.83;;
62933;SDS011;49038;47.600;19.242;2023-11-21T01:50:27;8.75;;;4.82;;
62933;SDS011;49038;47.600;19.242;2023-11-21T01:53:30;10.35;;;5.18;;
62933;SDS011;49038;47.600;19.242;2023-11-21T01:56:32;7.30;;;4.55;;
62933;SDS011;49038;47.600;19.242;2023-11-21T01:59:35;5.22;;;4.43;;
62933;SDS011;49038;47.600;19.242;2023-11-21T02:02:50;4.80;;;3.83;;
62933;SDS011;49038;47.600;19.242;2023-11-21T02:05:53;9.18;;;4.43;;
62933;SDS011;49038;47.600;19.242;2023-11-21T02:08:55;4.90;;;3.55;;
62933;SDS011;49038;47.600;19.242;2023-11-21T02:11:57;7.70;;;4.25;;
62933;SDS011;49038;47.600;19.242;2023-11-21T02:15:03;8.65;;;4.95;;
62933;SDS011;49038;47.600;19.242;2023-11-21T02:18:16;8.07;;;5.05;;
62933;SDS011;49038;47.600;19.242;2023-11-21T02:21:19;8.30;;;5.07;;
62933;SDS011;49038;47.600;19.242;2023-11-21T02:24:22;13.20;;;6.87;;
62933;SDS011;49038;47.600;19.242;2023-11-21T02:27:24;16.37;;;7.65;;
62933;SDS011;49038;47.600;19.242;2023-11-21T02:30:26;12.37;;;7.40;;
62933;SDS011;49038;47.600;19.242;2023-11-21T02:33:35;10.55;;;5.25;;
62933;SDS011;49038;47.600;19.242;2023-11-21T02:36:37;7.50;;;4.70;;
62933;SDS011;49038;47.600;19.242;2023-11-21T02:39:40;5.85;;;3.67;;
62933;SDS011;49038;47.600;19.242;2023-11-21T02:42:42;9.20;;;4.85;;
62933;SDS011;49038;47.600;19.242;2023-11-21T02:45:44;7.20;;;4.47;;
62933;SDS011;49038;47.600;19.242;2023-11-21T02:48:47;8.63;;;4.62;;
62933;SDS011;49038;47.600;19.242;2023-11-21T02:51:49;5.53;;;3.83;;
62933;SDS011;49038;47.600;19.242;2023-11-21T02:54:51;11.80;;;4.82;;
62933;SDS011;49038;47.600;19.242;2023-11-21T02:57:54;4.93;;;4.12;;
62933;SDS011;49038;47.600;19.242;2023-11-21T03:00:58;7.00;;;4.50;;
62933;SDS011;49038;47.600;19.242;2023-11-21T03:04:01;6.12;;;4.25;;
62933;SDS011;49038;47.600;19.242;2023-11-21T03:07:04;4.50;;;3.87;;
62933;SDS011;49038;47.600;19.242;2023-11-21T03:10:07;7.15;;;3.55;;
62933;SDS011;49038;47.600;19.242;2023-11-21T03:13:13;9.30;;;4.20;;
62933;SDS011;49038;47.600;19.242;2023-11-21T03:16:15;16.08;;;4.12;;
62933;SDS011;49038;47.600;19.242;2023-11-21T03:19:18;4.82;;;3.80;;
62933;SDS011;49038;47.600;19.242;2023-11-21T03:22:20;4.00;;;3.20;;
62933;SDS011;49038;47.600;19.242;2023-11-21T03:25:22;4.05;;;3.58;;
62933;SDS011;49038;47.600;19.242;2023-11-21T03:28:26;6.85;;;3.17;;
62933;SDS011;49038;47.600;19.242;2023-11-21T03:31:32;6.05;;;3.42;;
62933;SDS011;49038;47.600;19.242;2023-11-21T03:34:34;6.03;;;4.25;;
62933;SDS011;49038;47.600;19.242;2023-11-21T03:37:37;4.12;;;3.45;;
62933;SDS011;49038;47.600;19.242;2023-11-21T03:40:43;5.00;;;3.90;;
62933;SDS011;49038;47.600;19.242;2023-11-21T03:43:45;16.80;;;4.32;;
62933;SDS011;49038;47.600;19.242;2023-11-21T03:46:47;5.82;;;3.40;;
62933;SDS011;49038;47.600;19.242;2023-11-21T03:49:49;5.47;;;3.47;;
62933;SDS011;49038;47.600;19.242;2023-11-21T03:52:52;4.62;;;3.83;;
62933;SDS011;49038;47.600;19.242;2023-11-21T03:55:54;15.48;;;4.10;;
62933;SDS011;49038;47.600;19.242;2023-11-21T03:58:57;5.28;;;4.03;;
62933;SDS011;49038;47.600;19.242;2023-11-21T04:01:59;5.93;;;3.92;;
62933;SDS011;49038;47.600;19.242;2023-11-21T04:05:01;7.87;;;3.53;;
62933;SDS011;49038;47.600;19.242;2023-11-21T04:08:04;4.28;;;3.87;;
62933;SDS011;49038;47.600;19.242;2023-11-21T04:11:06;3.72;;;3.22;;
62933;SDS011;49038;47.600;19.242;2023-11-21T04:14:08;4.62;;;3.10;;
62933;SDS011;49038;47.600;19.242;2023-11-21T04:17:11;2.97;;;2.67;;
62933;SDS011;49038;47.600;19.242;2023-11-21T04:20:13;5.78;;;3.17;;
62933;SDS011;49038;47.600;19.242;2023-11-21T04:23:16;5.75;;;3.50;;
62933;SDS011;49038;47.600;19.242;2023-11-21T04:26:18;3.47;;;3.17;;
62933;SDS011;49038;47.600;19.242;2023-11-21T04:29:21;4.00;;;3.20;;
62933;SDS011;49038;47.600;19.242;2023-11-21T04:32:23;12.25;;;4.68;;
62933;SDS011;49038;47.600;19.242;2023-11-21T04:35:25;34.47;;;12.63;;
62933;SDS011;49038;47.600;19.242;2023-11-21T04:38:27;36.28;;;17.02;;
62933;SDS011;49038;47.600;19.242;2023-11-21T04:41:29;103.97;;;32.97;;
62933;SDS011;49038;47.600;19.242;2023-11-21T04:44:33;133.35;;;41.78;;
62933;SDS011;49038;47.600;19.242;2023-11-21T04:47:36;65.20;;;25.88;;
62933;SDS011;49038;47.600;19.242;2023-11-21T04:50:38;18.92;;;8.32;;
62933;SDS011;49038;47.600;19.242;2023-11-21T04:53:40;75.37;;;24.90;;
62933;SDS011;49038;47.600;19.242;2023-11-21T04:56:43;54.70;;;21.00;;
62933;SDS011;49038;47.600;19.242;2023-11-21T04:59:45;54.42;;;17.10;;
62933;SDS011;49038;47.600;19.242;2023-11-21T05:02:47;59.13;;;19.45;;
62933;SDS011;49038;47.600;19.242;2023-11-21T05:05:50;25.80;;;11.93;;
62933;SDS011;49038;47.600;19.242;2023-11-21T05:08:52;23.30;;;10.73;;
62933;SDS011;49038;47.600;19.242;2023-11-21T05:11:54;28.40;;;12.23;;
62933;SDS011;49038;47.600;19.242;2023-11-21T05:14:56;35.25;;;12.23;;
62933;SDS011;49038;47.600;19.242;2023-11-21T05:18:00;20.20;;;9.85;;
62933;SDS011;49038;47.600;19.242;2023-11-21T05:21:02;25.77;;;10.90;;
62933;SDS011;49038;47.600;19.242;2023-11-21T05:24:05;26.40;;;10.63;;
62933;SDS011;49038;47.600;19.242;2023-11-21T05:27:07;12.63;;;8.07;;
62933;SDS011;49038;47.600;19.242;2023-11-21T05:30:13;16.37;;;10.13;;
62933;SDS011;49038;47.600;19.242;2023-11-21T05:33:16;11.50;;;7.60;;
62933;SDS011;49038;47.600;19.242;2023-11-21T05:36:18;14.35;;;7.72;;
62933;SDS011;49038;47.600;19.242;2023-11-21T05:39:21;18.45;;;8.05;;
62933;SDS011;49038;47.600;19.242;2023-11-21T05:42:23;26.73;;;10.20;;
62933;SDS011;49038;47.600;19.242;2023-11-21T05:45:25;19.33;;;7.60;;
62933;SDS011;49038;47.600;19.242;2023-11-21T05:48:28;14.18;;;7.30;;
62933;SDS011;49038;47.600;19.242;2023-11-21T05:51:30;11.65;;;7.53;;
62933;SDS011;49038;47.600;19.242;2023-11-21T05:54:32;11.27;;;7.28;;
62933;SDS011;49038;47.600;19.242;2023-11-21T05:57:35;11.40;;;7.30;;
62933;SDS011;49038;47.600;19.242;2023-11-21T06:00:38;10.98;;;7.40;;
62933;SDS011;49038;47.600;19.242;2023-11-21T06:03:41;23.87;;;6.60;;
62933;SDS011;49038;47.600;19.242;2023-11-21T06:06:43;11.32;;;6.60;;
62933;SDS011;49038;47.600;19.242;2023-11-21T06:09:46;13.15;;;6.65;;
62933;SDS011;49038;47.600;19.242;2023-11-21T06:12:48;21.70;;;7.47;;
62933;SDS011;49038;47.600;19.242;2023-11-21T06:15:50;10.60;;;5.95;;
62933;SDS011;49038;47.600;19.242;2023-11-21T06:18:53;7.82;;;4.87;;
62933;SDS011;49038;47.600;19.242;2023-11-21T06:21:55;10.70;;;5.75;;
62933;SDS011;49038;47.600;19.242;2023-11-21T06:24:57;8.55;;;6.00;;
62933;SDS011;49038;47.600;19.242;2023-11-21T06:28:00;11.63;;;6.68;;
62933;SDS011;49038;47.600;19.242;2023-11-21T06:31:03;9.63;;;6.28;;
62933;SDS011;49038;47.600;19.242;2023-11-21T06:34:07;10.10;;;7.80;;
62933;SDS011;49038;47.600;19.242;2023-11-21T06:37:11;11.98;;;7.37;;
62933;SDS011;49038;47.600;19.242;2023-11-21T06:40:14;11.05;;;6.35;;
62933;SDS011;49038;47.600;19.242;2023-11-21T06:43:21;14.80;;;5.22;;
62933;SDS011;49038;47.600;19.242;2023-11-21T06:46:24;5.72;;;4.72;;
62933;SDS011;49038;47.600;19.242;2023-11-21T06:49:27;7.20;;;4.62;;
62933;SDS011;49038;47.600;19.242;2023-11-21T06:52:29;5.65;;;4.28;;
62933;SDS011;49038;47.600;19.242;2023-11-21T06:55:32;8.50;;;5.12;;
62933;SDS011;49038;47.600;19.242;2023-11-21T06:58:34;3.95;;;3.37;;
62933;SDS011;49038;47.600;19.242;2023-11-21T07:01:36;10.90;;;4.18;;
62933;SDS011;49038;47.600;19.242;2023-11-21T07:04:41;11.90;;;4.40;;
62933;SDS011;49038;47.600;19.242;2023-11-21T07:07:43;5.10;;;3.50;;
62933;SDS011;49038;47.600;19.242;2023-11-21T07:10:46;10.18;;;4.97;;
62933;SDS011;49038;47.600;19.242;2023-11-21T07:13:49;21.20;;;8.57;;
62933;SDS011;49038;47.600;19.242;2023-11-21T07:16:51;19.90;;;10.38;;
62933;SDS011;49038;47.600;19.242;2023-11-21T07:19:54;34.00;;;15.55;;
62933;SDS011;49038;47.600;19.242;2023-11-21T07:22:57;18.70;;;9.15;;
62933;SDS011;49038;47.600;19.242;2023-11-21T07:25:59;27.92;;;11.30;;
62933;SDS011;49038;47.600;19.242;2023-11-21T07:29:02;7.12;;;5.55;;
62933;SDS011;49038;47.600;19.242;2023-11-21T07:32:04;12.35;;;6.43;;
62933;SDS011;49038;47.600;19.242;2023-11-21T07:35:07;8.48;;;5.72;;
62933;SDS011;49038;47.600;19.242;2023-11-21T07:38:10;15.10;;;7.53;;
62933;SDS011;49038;47.600;19.242;2023-11-21T07:41:12;13.85;;;7.95;;
62933;SDS011;49038;47.600;19.242;2023-11-21T07:44:31;14.10;;;8.30;;
62933;SDS011;49038;47.600;19.242;2023-11-21T07:47:34;9.88;;;6.90;;
62933;SDS011;49038;47.600;19.242;2023-11-21T07:50:37;10.05;;;6.80;;
62933;SDS011;49038;47.600;19.242;2023-11-21T07:53:39;11.10;;;6.68;;
62933;SDS011;49038;47.600;19.242;2023-11-21T07:56:41;10.57;;;7.28;;
62933;SDS011;49038;47.600;19.242;2023-11-21T07:59:44;8.45;;;5.25;;
62933;SDS011;49038;47.600;19.242;2023-11-21T08:02:46;9.57;;;5.65;;
62933;SDS011;49038;47.600;19.242;2023-11-21T08:05:49;11.02;;;6.20;;
62933;SDS011;49038;47.600;19.242;2023-11-21T08:08:51;8.15;;;4.10;;
62933;SDS011;49038;47.600;19.242;2023-11-21T08:11:53;8.13;;;5.37;;
62933;SDS011;49038;47.600;19.242;2023-11-21T08:14:55;8.15;;;6.28;;
62933;SDS011;49038;47.600;19.242;2023-11-21T08:17:58;17.12;;;7.60;;
62933;SDS011;49038;47.600;19.242;2023-11-21T08:21:00;13.35;;;6.75;;
62933;SDS011;49038;47.600;19.242;2023-11-21T08:24:03;12.68;;;7.80;;
62933;SDS011;49038;47.600;19.242;2023-11-21T08:27:06;13.45;;;8.32;;
62933;SDS011;49038;47.600;19.242;2023-11-21T08:30:09;12.90;;;7.70;;
62933;SDS011;49038;47.600;19.242;2023-11-21T08:33:11;14.98;;;7.68;;
62933;SDS011;49038;47.600;19.242;2023-11-21T08:36:15;13.85;;;7.62;;
62933;SDS011;49038;47.600;19.242;2023-11-21T08:39:17;16.90;;;8.85;;
62933;SDS011;49038;47.600;19.242;2023-11-21T08:42:21;10.88;;;7.95;;
62933;SDS011;49038;47.600;19.242;2023-11-21T08:45:25;17.98;;;9.10;;
62933;SDS011;49038;47.600;19.242;2023-11-21T08:48:30;10.43;;;7.32;;
62933;SDS011;49038;47.600;19.242;2023-11-21T08:51:33;10.90;;;6.57;;
62933;SDS011;49038;47.600;19.242;2023-11-21T08:54:35;11.85;;;6.87;;
62933;SDS011;49038;47.600;19.242;2023-11-21T08:57:38;11.27;;;6.32;;
62933;SDS011;49038;47.600;19.242;2023-11-21T09:00:42;9.70;;;7.05;;
62933;SDS011;49038;47.600;19.242;2023-11-21T09:03:46;8.43;;;4.78;;
62933;SDS011;49038;47.600;19.242;2023-11-21T09:06:49;10.23;;;5.07;;
62933;SDS011;49038;47.600;19.242;2023-11-21T09:09:51;10.13;;;4.12;;
62933;SDS011;49038;47.600;19.242;2023-11-21T09:12:53;11.12;;;5.18;;
62933;SDS011;49038;47.600;19.242;2023-11-21T09:15:56;9.25;;;5.47;;
62933;SDS011;49038;47.600;19.242;2023-11-21T09:18:58;8.70;;;5.50;;
62933;SDS011;49038;47.600;19.242;2023-11-21T09:22:03;11.90;;;6.62;;
62933;SDS011;49038;47.600;19.242;2023-11-21T09:25:07;11.65;;;5.68;;
62933;SDS011;49038;47.600;19.242;2023-11-21T09:28:10;10.55;;;5.90;;
62933;SDS011;49038;47.600;19.242;2023-11-21T09:31:13;14.40;;;6.82;;
62933;SDS011;49038;47.600;19.242;2023-11-21T09:34:17;9.35;;;5.47;;
62933;SDS011;49038;47.600;19.242;2023-11-21T09:37:20;9.27;;;5.72;;
62933;SDS011;49038;47.600;19.242;2023-11-21T09:40:22;8.55;;;5.00;;
62933;SDS011;49038;47.600;19.242;2023-11-21T09:43:25;8.82;;;4.78;;
62933;SDS011;49038;47.600;19.242;2023-11-21T09:46:30;6.78;;;3.72;;
62933;SDS011;49038;47.600;19.242;2023-11-21T09:49:32;8.23;;;4.93;;
62933;SDS011;49038;47.600;19.242;2023-11-21T09:52:46;6.12;;;3.17;;
62933;SDS011;49038;47.600;19.242;2023-11-21T09:55:54;6.85;;;4.10;;
62933;SDS011;49038;47.600;19.242;2023-11-21T09:58:56;13.32;;;4.50;;
62933;SDS011;49038;47.600;19.242;2023-11-21T10:02:00;6.22;;;4.20;;
62933;SDS011;49038;47.600;19.242;2023-11-21T10:05:03;7.80;;;3.62;;
62933;SDS011;49038;47.600;19.242;2023-11-21T10:08:09;6.93;;;4.07;;
62933;SDS011;49038;47.600;19.242;2023-11-21T10:11:12;5.15;;;4.15;;
62933;SDS011;49038;47.600;19.242;2023-11-21T10:14:16;7.45;;;4.35;;
62933;SDS011;49038;47.600;19.242;2023-11-21T10:17:26;9.95;;;5.75;;
62933;SDS011;49038;47.600;19.242;2023-11-21T10:20:33;7.53;;;3.90;;
62933;SDS011;49038;47.600;19.242;2023-11-21T10:23:35;9.95;;;4.85;;
62933;SDS011;49038;47.600;19.242;2023-11-21T10:26:38;11.80;;;5.57;;
62933;SDS011;49038;47.600;19.242;2023-11-21T10:29:54;14.18;;;4.57;;
62933;SDS011;49038;47.600;19.242;2023-11-21T10:32:58;9.43;;;4.95;;
62933;SDS011;49038;47.600;19.242;2023-11-21T10:36:04;22.05;;;10.70;;
62933;SDS011;49038;47.600;19.242;2023-11-21T10:39:06;9.18;;;5.15;;
62933;SDS011;49038;47.600;19.242;2023-11-21T10:42:09;10.98;;;4.43;;
62933;SDS011;49038;47.600;19.242;2023-11-21T10:45:12;4.87;;;3.25;;
62933;SDS011;49038;47.600;19.242;2023-11-21T10:48:16;3.42;;;2.97;;
62933;SDS011;49038;47.600;19.242;2023-11-21T10:51:20;4.00;;;2.67;;
62933;SDS011;49038;47.600;19.242;2023-11-21T10:54:23;4.82;;;3.42;;
62933;SDS011;49038;47.600;19.242;2023-11-21T10:57:27;7.15;;;3.37;;
62933;SDS011;49038;47.600;19.242;2023-11-21T11:00:30;14.02;;;5.00;;
62933;SDS011;49038;47.600;19.242;2023-11-21T11:03:32;13.82;;;4.93;;
62933;SDS011;49038;47.600;19.242;2023-11-21T11:06:36;16.92;;;7.75;;
62933;SDS011;49038;47.600;19.242;2023-11-21T11:09:40;18.10;;;6.85;;
62933;SDS011;49038;47.600;19.242;2023-11-21T11:12:43;8.95;;;4.60;;
62933;SDS011;49038;47.600;19.242;2023-11-21T11:15:48;6.28;;;4.10;;
62933;SDS011;49038;47.600;19.242;2023-11-21T11:18:50;6.28;;;4.30;;
62933;SDS011;49038;47.600;19.242;2023-11-21T11:22:00;21.50;;;7.12;;
62933;SDS011;49038;47.600;19.242;2023-11-21T11:35:33;19.15;;;8.50;;
62933;SDS011;49038;47.600;19.242;2023-11-21T11:38:39;10.60;;;7.65;;
62933;SDS011;49038;47.600;19.242;2023-11-21T11:41:47;9.73;;;4.30;;
62933;SDS011;49038;47.600;19.242;2023-11-21T11:44:50;10.95;;;5.72;;
62933;SDS011;49038;47.600;19.242;2023-11-21T11:47:57;12.77;;;5.72;;
62933;SDS011;49038;47.600;19.242;2023-11-21T11:54:10;18.27;;;10.60;;
62933;SDS011;49038;47.600;19.242;2023-11-21T11:57:15;26.02;;;10.77;;
62933;SDS011;49038;47.600;19.242;2023-11-21T12:00:19;26.27;;;10.52;;
62933;SDS011;49038;47.600;19.242;2023-11-21T12:03:28;15.30;;;7.35;;
62933;SDS011;49038;47.600;19.242;2023-11-21T12:06:34;13.15;;;7.70;;
62933;SDS011;49038;47.600;19.242;2023-11-21T12:09:36;11.43;;;6.75;;
62933;SDS011;49038;47.600;19.242;2023-11-21T12:12:41;12.05;;;5.72;;
62933;SDS011;49038;47.600;19.242;2023-11-21T12:15:44;11.90;;;6.47;;
62933;SDS011;49038;47.600;19.242;2023-11-21T12:18:47;7.97;;;4.82;;
62933;SDS011;49038;47.600;19.242;2023-11-21T12:21:50;6.97;;;4.32;;
62933;SDS011;49038;47.600;19.242;2023-11-21T12:24:54;13.52;;;4.95;;
62933;SDS011;49038;47.600;19.242;2023-11-21T12:27:56;16.20;;;5.90;;
62933;SDS011;49038;47.600;19.242;2023-11-21T12:30:59;14.50;;;4.90;;
62933;SDS011;49038;47.600;19.242;2023-11-21T12:34:16;9.75;;;5.82;;
62933;SDS011;49038;47.600;19.242;2023-11-21T12:37:19;14.98;;;5.97;;
62933;SDS011;49038;47.600;19.242;2023-11-21T12:40:22;8.80;;;5.75;;
62933;SDS011;49038;47.600;19.242;2023-11-21T12:43:25;13.77;;;6.15;;
62933;SDS011;49038;47.600;19.242;2023-11-21T12:46:27;10.95;;;5.70;;
62933;SDS011;49038;47.600;19.242;2023-11-21T12:49:35;13.57;;;6.60;;
62933;SDS011;49038;47.600;19.242;2023-11-21T12:52:37;12.77;;;6.60;;
62933;SDS011;49038;47.600;19.242;2023-11-21T12:55:41;8.40;;;5.57;;
62933;SDS011;49038;47.600;19.242;2023-11-21T12:58:47;12.35;;;7.47;;
62933;SDS011;49038;47.600;19.242;2023-11-21T13:01:49;18.85;;;7.03;;
62933;SDS011;49038;47.600;19.242;2023-11-21T13:04:53;12.15;;;7.72;;
62933;SDS011;49038;47.600;19.242;2023-11-21T13:07:56;14.77;;;7.80;;
62933;SDS011;49038;47.600;19.242;2023-11-21T13:11:00;13.57;;;7.95;;
62933;SDS011;49038;47.600;19.242;2023-11-21T13:14:02;14.02;;;7.57;;
62933;SDS011;49038;47.600;19.242;2023-11-21T13:17:05;12.13;;;6.55;;
62933;SDS011;49038;47.600;19.242;2023-11-21T13:20:08;11.60;;;6.15;;
62933;SDS011;49038;47.600;19.242;2023-11-21T13:23:17;11.10;;;7.28;;
62933;SDS011;49038;47.600;19.242;2023-11-21T13:26:19;13.50;;;7.53;;
62933;SDS011;49038;47.600;19.242;2023-11-21T13:29:23;14.38;;;7.85;;
62933;SDS011;49038;47.600;19.242;2023-11-21T13:32:27;15.25;;;9.98;;
62933;SDS011;49038;47.600;19.242;2023-11-21T13:35:31;24.87;;;13.75;;
62933;SDS011;49038;47.600;19.242;2023-11-21T13:38:43;25.10;;;12.85;;
62933;SDS011;49038;47.600;19.242;2023-11-21T13:41:47;17.37;;;11.27;;
62933;SDS011;49038;47.600;19.242;2023-11-21T13:44:56;21.23;;;8.30;;
62933;SDS011;49038;47.600;19.242;2023-11-21T13:47:59;12.73;;;7.15;;
62933;SDS011;49038;47.600;19.242;2023-11-21T13:51:01;11.82;;;6.53;;
62933;SDS011;49038;47.600;19.242;2023-11-21T13:54:12;10.88;;;6.68;;
62933;SDS011;49038;47.600;19.242;2023-11-21T13:57:15;19.00;;;7.12;;
62933;SDS011;49038;47.600;19.242;2023-11-21T14:00:18;10.00;;;5.75;;
62933;SDS011;49038;47.600;19.242;2023-11-21T14:03:39;11.23;;;6.22;;
62933;SDS011;49038;47.600;19.242;2023-11-21T14:06:52;13.68;;;7.03;;
62933;SDS011;49038;47.600;19.242;2023-11-21T14:09:56;16.55;;;9.93;;
62933;SDS011;49038;47.600;19.242;2023-11-21T14:13:00;26.73;;;13.13;;
62933;SDS011;49038;47.600;19.242;2023-11-21T14:16:02;18.52;;;10.55;;
62933;SDS011;49038;47.600;19.242;2023-11-21T14:19:08;15.25;;;8.63;;
62933;SDS011;49038;47.600;19.242;2023-11-21T14:22:17;22.15;;;7.25;;
62933;SDS011;49038;47.600;19.242;2023-11-21T14:25:20;15.88;;;8.68;;
62933;SDS011;49038;47.600;19.242;2023-11-21T14:28:24;18.40;;;8.98;;
62933;SDS011;49038;47.600;19.242;2023-11-21T14:31:26;40.53;;;16.30;;
62933;SDS011;49038;47.600;19.242;2023-11-21T14:34:32;23.90;;;12.23;;
62933;SDS011;49038;47.600;19.242;2023-11-21T14:37:34;28.00;;;13.52;;
62933;SDS011;49038;47.600;19.242;2023-11-21T14:40:37;22.77;;;11.07;;
62933;SDS011;49038;47.600;19.242;2023-11-21T14:43:39;18.87;;;8.65;;
62933;SDS011;49038;47.600;19.242;2023-11-21T14:46:42;21.42;;;10.23;;
62933;SDS011;49038;47.600;19.242;2023-11-21T14:49:49;20.15;;;11.27;;
62933;SDS011;49038;47.600;19.242;2023-11-21T14:52:56;21.15;;;9.43;;
62933;SDS011;49038;47.600;19.242;2023-11-21T14:56:01;19.55;;;9.20;;
62933;SDS011;49038;47.600;19.242;2023-11-21T14:59:06;18.50;;;9.25;;
62933;SDS011;49038;47.600;19.242;2023-11-21T15:02:14;11.98;;;7.22;;
62933;SDS011;49038;47.600;19.242;2023-11-21T15:05:17;16.50;;;8.10;;
62933;SDS011;49038;47.600;19.242;2023-11-21T15:08:21;14.57;;;8.13;;
62933;SDS011;49038;47.600;19.242;2023-11-21T15:11:28;23.67;;;10.57;;
62933;SDS011;49038;47.600;19.242;2023-11-21T15:14:33;15.43;;;10.15;;
62933;SDS011;49038;47.600;19.242;2023-11-21T15:17:37;14.52;;;8.60;;
62933;SDS011;49038;47.600;19.242;2023-11-21T15:20:41;18.30;;;8.60;;
62933;SDS011;49038;47.600;19.242;2023-11-21T15:23:45;21.45;;;11.05;;
62933;SDS011;49038;47.600;19.242;2023-11-21T15:26:48;51.10;;;26.85;;
62933;SDS011;49038;47.600;19.242;2023-11-21T15:29:50;35.90;;;15.93;;
62933;SDS011;49038;47.600;19.242;2023-11-21T15:32:52;37.65;;;19.60;;
62933;SDS011;49038;47.600;19.242;2023-11-21T15:35:55;26.83;;;16.12;;
62933;SDS011;49038;47.600;19.242;2023-11-21T15:38:58;27.48;;;14.60;;
62933;SDS011;49038;47.600;19.242;2023-11-21T15:42:00;19.77;;;10.93;;
62933;SDS011;49038;47.600;19.242;2023-11-21T15:45:02;21.17;;;10.77;;
62933;SDS011;49038;47.600;19.242;2023-11-21T15:48:08;21.50;;;12.30;;
62933;SDS011;49038;47.600;19.242;2023-11-21T15:51:12;54.42;;;21.92;;
62933;SDS011;49038;47.600;19.242;2023-11-21T15:54:14;50.63;;;22.80;;
62933;SDS011;49038;47.600;19.242;2023-11-21T15:57:16;42.62;;;21.83;;
62933;SDS011;49038;47.600;19.242;2023-11-21T16:00:20;46.33;;;24.25;;
62933;SDS011;49038;47.600;19.242;2023-11-21T16:03:24;53.70;;;26.25;;
62933;SDS011;49038;47.600;19.242;2023-11-21T16:06:27;40.63;;;22.13;;
62933;SDS011;49038;47.600;19.242;2023-11-21T16:09:30;60.67;;;30.73;;
62933;SDS011;49038;47.600;19.242;2023-11-21T16:12:33;61.67;;;31.90;;
62933;SDS011;49038;47.600;19.242;2023-11-21T16:15:35;27.60;;;16.05;;
62933;SDS011;49038;47.600;19.242;2023-11-21T16:18:37;27.95;;;17.27;;
62933;SDS011;49038;47.600;19.242;2023-11-21T16:21:40;28.95;;;15.25;;
62933;SDS011;49038;47.600;19.242;2023-11-21T16:24:42;40.97;;;19.48;;
62933;SDS011;49038;47.600;19.242;2023-11-21T16:27:44;55.80;;;25.45;;
62933;SDS011;49038;47.600;19.242;2023-11-21T16:30:47;50.08;;;26.20;;
62933;SDS011;49038;47.600;19.242;2023-11-21T16:33:50;54.63;;;27.40;;
62933;SDS011;49038;47.600;19.242;2023-11-21T16:36:52;54.22;;;29.50;;
62933;SDS011;49038;47.600;19.242;2023-11-21T16:39:55;49.13;;;26.15;;
62933;SDS011;49038;47.600;19.242;2023-11-21T16:42:57;28.23;;;17.75;;
62933;SDS011;49038;47.600;19.242;2023-11-21T16:45:59;35.25;;;21.98;;
62933;SDS011;49038;47.600;19.242;2023-11-21T16:49:01;44.90;;;25.58;;
62933;SDS011;49038;47.600;19.242;2023-11-21T16:52:04;44.83;;;24.90;;
62933;SDS011;49038;47.600;19.242;2023-11-21T16:55:09;39.60;;;21.77;;
62933;SDS011;49038;47.600;19.242;2023-11-21T16:58:12;46.25;;;23.15;;
62933;SDS011;49038;47.600;19.242;2023-11-21T17:01:14;43.13;;;23.38;;
62933;SDS011;49038;47.600;19.242;2023-11-21T17:04:16;40.33;;;21.05;;
62933;SDS011;49038;47.600;19.242;2023-11-21T17:07:22;36.40;;;20.40;;
62933;SDS011;49038;47.600;19.242;2023-11-21T17:10:25;37.65;;;21.42;;
62933;SDS011;49038;47.600;19.242;2023-11-21T17:13:27;38.88;;;21.23;;
62933;SDS011;49038;47.600;19.242;2023-11-21T17:16:30;46.15;;;23.87;;
62933;SDS011;49038;47.600;19.242;2023-11-21T17:19:33;34.72;;;21.15;;
62933;SDS011;49038;47.600;19.242;2023-11-21T17:22:37;40.75;;;20.23;;
62933;SDS011;49038;47.600;19.242;2023-11-21T17:25:42;24.73;;;14.25;;
62933;SDS011;49038;47.600;19.242;2023-11-21T17:28:44;48.87;;;19.92;;
62933;SDS011;49038;47.600;19.242;2023-11-21T17:31:47;17.92;;;12.52;;
62933;SDS011;49038;47.600;19.242;2023-11-21T17:34:50;73.10;;;33.92;;
62933;SDS011;49038;47.600;19.242;2023-11-21T17:37:52;44.90;;;20.02;;
62933;SDS011;49038;47.600;19.242;2023-11-21T17:40:55;29.80;;;15.60;;
62933;SDS011;49038;47.600;19.242;2023-11-21T17:43:58;36.95;;;18.55;;
62933;SDS011;49038;47.600;19.242;2023-11-21T17:47:04;43.87;;;20.48;;
62933;SDS011;49038;47.600;19.242;2023-11-21T17:50:06;40.45;;;21.75;;
62933;SDS011;49038;47.600;19.242;2023-11-21T17:53:09;40.38;;;22.13;;
62933;SDS011;49038;47.600;19.242;2023-11-21T17:56:12;41.53;;;22.30;;
62933;SDS011;49038;47.600;19.242;2023-11-21T17:59:17;46.90;;;25.12;;
62933;SDS011;49038;47.600;19.242;2023-11-21T18:02:19;28.80;;;15.95;;
62933;SDS011;49038;47.600;19.242;2023-11-21T18:05:22;36.75;;;16.08;;
62933;SDS011;49038;47.600;19.242;2023-11-21T18:08:25;43.45;;;21.67;;